sensor_id;sensor_type;location;lat;lon;timestamp;pressure;altitude;pressure_sealevel;temperature;humidity
67803;BME280;54601;51.378;-1.342;2022-12-29T00:01:40;98101.77;;;19.29;33.28
67803;BME280;54601;51.378;-1.342;2022-12-29T00:04:06;98095.91;;;19.93;33.00
67803;BME280;54601;51.378;-1.342;2022-12-29T00:06:31;98090.69;;;19.22;33.36
67803;BME280;54601;51.378;-1.342;2022-12-29T00:08:55;98079.83;;;19.37;33.50
67803;BME280;54601;51.378;-1.342;2022-12-29T00:11:22;98080.73;;;19.31;33.25
67803;BME280;54601;51.378;-1.342;2022-12-29T00:13:46;98069.85;;;19.36;33.11
67803;BME280;54601;51.378;-1.342;2022-12-29T00:16:11;98069.66;;;19.32;33.17
67803;BME280;54601;51.378;-1.342;2022-12-29T00:18:36;98058.65;;;19.62;33.06
67803;BME280;54601;51.378;-1.342;2022-12-29T00:21:01;98058.60;;;19.56;33.41
67803;BME280;54601;51.378;-1.342;2022-12-29T00:23:26;98065.60;;;19.04;33.42
67803;BME280;54601;51.378;-1.342;2022-12-29T00:25:51;98067.13;;;19.40;33.34
67803;BME280;54601;51.378;-1.342;2022-12-29T00:28:16;98062.53;;;19.36;33.30
67803;BME280;54601;51.378;-1.342;2022-12-29T00:30:41;98057.05;;;19.55;33.36
67803;BME280;54601;51.378;-1.342;2022-12-29T00:33:09;98056.91;;;19.52;33.30
67803;BME280;54601;51.378;-1.342;2022-12-29T00:35:35;98056.36;;;19.09;33.28
67803;BME280;54601;51.378;-1.342;2022-12-29T00:38:00;98048.32;;;19.36;33.25
67803;BME280;54601;51.378;-1.342;2022-12-29T00:40:22;98036.05;;;19.59;33.19
67803;BME280;54601;51.378;-1.342;2022-12-29T00:42:47;98042.64;;;19.10;33.15
67803;BME280;54601;51.378;-1.342;2022-12-29T00:45:13;98040.11;;;19.55;33.14
67803;BME280;54601;51.378;-1.342;2022-12-29T00:47:37;98033.85;;;18.89;33.35
67803;BME280;54601;51.378;-1.342;2022-12-29T00:50:03;98045.49;;;19.25;33.19
67803;BME280;54601;51.378;-1.342;2022-12-29T00:52:27;98042.03;;;19.44;33.23
67803;BME280;54601;51.378;-1.342;2022-12-29T00:54:53;98050.02;;;18.98;33.23
67803;BME280;54601;51.378;-1.342;2022-12-29T00:57:18;98051.45;;;19.01;33.14
67803;BME280;54601;51.378;-1.342;2022-12-29T00:59:43;98048.88;;;19.25;33.15
67803;BME280;54601;51.378;-1.342;2022-12-29T01:02:09;98040.00;;;19.23;33.29
67803;BME280;54601;51.378;-1.342;2022-12-29T01:04:34;98046.23;;;19.43;33.12
67803;BME280;54601;51.378;-1.342;2022-12-29T01:06:58;98036.04;;;18.98;33.08
67803;BME280;54601;51.378;-1.342;2022-12-29T01:09:24;98028.42;;;19.41;33.12
67803;BME280;54601;51.378;-1.342;2022-12-29T01:11:49;98023.24;;;19.17;33.19
67803;BME280;54601;51.378;-1.342;2022-12-29T01:14:14;98016.72;;;18.95;33.00
67803;BME280;54601;51.378;-1.342;2022-12-29T01:16:39;98010.30;;;19.20;33.02
67803;BME280;54601;51.378;-1.342;2022-12-29T01:19:04;98003.87;;;19.16;32.73
67803;BME280;54601;51.378;-1.342;2022-12-29T01:21:29;97998.11;;;19.29;32.77
67803;BME280;54601;51.378;-1.342;2022-12-29T01:23:54;98005.46;;;19.33;32.72
67803;BME280;54601;51.378;-1.342;2022-12-29T01:26:19;98003.44;;;19.33;32.76
67803;BME280;54601;51.378;-1.342;2022-12-29T01:28:45;98007.67;;;19.24;32.95
67803;BME280;54601;51.378;-1.342;2022-12-29T01:31:11;98004.09;;;19.53;32.89
67803;BME280;54601;51.378;-1.342;2022-12-29T01:33:35;98010.69;;;19.28;32.46
67803;BME280;54601;51.378;-1.342;2022-12-29T01:36:00;97995.09;;;19.26;32.82
67803;BME280;54601;51.378;-1.342;2022-12-29T01:38:25;97991.48;;;19.65;32.55
67803;BME280;54601;51.378;-1.342;2022-12-29T01:40:50;98001.55;;;19.49;32.54
67803;BME280;54601;51.378;-1.342;2022-12-29T01:43:15;97989.34;;;19.75;32.41
67803;BME280;54601;51.378;-1.342;2022-12-29T01:45:45;97988.10;;;19.55;32.40
67803;BME280;54601;51.378;-1.342;2022-12-29T01:48:08;97982.76;;;19.33;32.28
67803;BME280;54601;51.378;-1.342;2022-12-29T01:50:32;97986.95;;;19.40;32.46
67803;BME280;54601;51.378;-1.342;2022-12-29T01:52:58;97983.87;;;19.84;32.21
67803;BME280;54601;51.378;-1.342;2022-12-29T01:55:21;97982.89;;;19.93;32.11
67803;BME280;54601;51.378;-1.342;2022-12-29T01:57:49;97995.99;;;19.76;32.04
67803;BME280;54601;51.378;-1.342;2022-12-29T02:00:13;97994.12;;;19.57;31.93
67803;BME280;54601;51.378;-1.342;2022-12-29T02:02:37;98006.28;;;20.06;31.96
67803;BME280;54601;51.378;-1.342;2022-12-29T02:05:07;98005.19;;;19.74;31.98
67803;BME280;54601;51.378;-1.342;2022-12-29T02:07:27;97996.32;;;19.46;32.02
67803;BME280;54601;51.378;-1.342;2022-12-29T02:09:53;97986.18;;;19.58;31.87
67803;BME280;54601;51.378;-1.342;2022-12-29T02:12:18;97989.63;;;19.64;32.14
67803;BME280;54601;51.378;-1.342;2022-12-29T02:14:42;97986.39;;;19.81;32.19
67803;BME280;54601;51.378;-1.342;2022-12-29T02:17:10;97986.28;;;19.64;32.16
67803;BME280;54601;51.378;-1.342;2022-12-29T02:22:05;97994.93;;;19.48;32.04
67803;BME280;54601;51.378;-1.342;2022-12-29T02:27:02;97992.07;;;19.59;31.88
67803;BME280;54601;51.378;-1.342;2022-12-29T02:31:40;97996.67;;;19.40;32.09
67803;BME280;54601;51.378;-1.342;2022-12-29T02:34:09;97997.30;;;19.92;32.10
67803;BME280;54601;51.378;-1.342;2022-12-29T02:36:34;97997.73;;;19.56;32.31
67803;BME280;54601;51.378;-1.342;2022-12-29T02:39:02;97995.13;;;19.79;32.04
67803;BME280;54601;51.378;-1.342;2022-12-29T02:41:22;97991.84;;;19.69;32.19
67803;BME280;54601;51.378;-1.342;2022-12-29T02:43:48;97995.66;;;19.51;32.09
67803;BME280;54601;51.378;-1.342;2022-12-29T02:46:12;98004.41;;;19.94;31.90
67803;BME280;54601;51.378;-1.342;2022-12-29T02:48:38;98004.83;;;19.85;32.25
67803;BME280;54601;51.378;-1.342;2022-12-29T02:51:01;98006.13;;;19.77;32.10
67803;BME280;54601;51.378;-1.342;2022-12-29T02:53:24;98002.63;;;19.45;32.06
67803;BME280;54601;51.378;-1.342;2022-12-29T02:55:49;98010.37;;;19.52;32.01
67803;BME280;54601;51.378;-1.342;2022-12-29T02:58:18;98018.63;;;19.72;32.10
67803;BME280;54601;51.378;-1.342;2022-12-29T03:00:47;98018.09;;;19.63;32.19
67803;BME280;54601;51.378;-1.342;2022-12-29T03:03:15;98021.35;;;19.65;32.14
67803;BME280;54601;51.378;-1.342;2022-12-29T03:05:41;98020.37;;;20.00;31.98
67803;BME280;54601;51.378;-1.342;2022-12-29T03:08:00;98034.96;;;19.93;32.06
67803;BME280;54601;51.378;-1.342;2022-12-29T03:10:30;98034.35;;;19.57;31.90
67803;BME280;54601;51.378;-1.342;2022-12-29T03:12:49;98027.78;;;19.60;31.88
67803;BME280;54601;51.378;-1.342;2022-12-29T03:15:15;98026.83;;;19.52;31.98
67803;BME280;54601;51.378;-1.342;2022-12-29T03:17:42;98028.70;;;19.92;31.81
67803;BME280;54601;51.378;-1.342;2022-12-29T03:20:07;98036.46;;;19.95;31.75
67803;BME280;54601;51.378;-1.342;2022-12-29T03:22:28;98031.47;;;19.83;31.93
67803;BME280;54601;51.378;-1.342;2022-12-29T03:24:52;98027.92;;;19.71;31.76
67803;BME280;54601;51.378;-1.342;2022-12-29T03:27:19;98030.04;;;19.82;31.97
67803;BME280;54601;51.378;-1.342;2022-12-29T03:29:44;98030.68;;;19.66;31.86
67803;BME280;54601;51.378;-1.342;2022-12-29T03:32:07;98023.70;;;19.54;31.94
67803;BME280;54601;51.378;-1.342;2022-12-29T03:34:31;98034.66;;;19.89;31.88
67803;BME280;54601;51.378;-1.342;2022-12-29T03:37:00;98040.00;;;19.65;31.80
67803;BME280;54601;51.378;-1.342;2022-12-29T03:39:22;98029.88;;;19.65;31.81
67803;BME280;54601;51.378;-1.342;2022-12-29T03:41:46;98026.26;;;19.62;31.86
67803;BME280;54601;51.378;-1.342;2022-12-29T03:44:11;98030.99;;;19.66;31.81
67803;BME280;54601;51.378;-1.342;2022-12-29T03:46:36;98026.74;;;20.08;31.85
67803;BME280;54601;51.378;-1.342;2022-12-29T03:49:01;98046.82;;;19.57;31.94
67803;BME280;54601;51.378;-1.342;2022-12-29T03:51:26;98035.98;;;20.08;31.93
67803;BME280;54601;51.378;-1.342;2022-12-29T03:53:51;98044.96;;;19.59;31.96
67803;BME280;54601;51.378;-1.342;2022-12-29T03:56:16;98055.78;;;20.05;31.76
67803;BME280;54601;51.378;-1.342;2022-12-29T03:58:41;98056.72;;;19.62;31.90
67803;BME280;54601;51.378;-1.342;2022-12-29T04:01:06;98066.56;;;19.57;32.02
67803;BME280;54601;51.378;-1.342;2022-12-29T04:03:32;98072.31;;;19.69;31.82
67803;BME280;54601;51.378;-1.342;2022-12-29T04:05:57;98080.09;;;19.79;32.02
67803;BME280;54601;51.378;-1.342;2022-12-29T04:08:22;98094.01;;;19.84;31.99
67803;BME280;54601;51.378;-1.342;2022-12-29T04:10:48;98090.12;;;19.91;31.93
67803;BME280;54601;51.378;-1.342;2022-12-29T04:13:12;98101.26;;;19.63;31.93
67803;BME280;54601;51.378;-1.342;2022-12-29T04:15:37;98101.30;;;19.68;31.89
67803;BME280;54601;51.378;-1.342;2022-12-29T04:18:02;98107.76;;;19.64;31.93
67803;BME280;54601;51.378;-1.342;2022-12-29T04:20:27;98114.43;;;19.54;32.07
67803;BME280;54601;51.378;-1.342;2022-12-29T04:22:58;98122.53;;;20.16;31.90
67803;BME280;54601;51.378;-1.342;2022-12-29T04:25:18;98132.82;;;20.28;31.80
67803;BME280;54601;51.378;-1.342;2022-12-29T04:27:43;98132.46;;;19.69;31.88
67803;BME280;54601;51.378;-1.342;2022-12-29T04:30:09;98141.00;;;19.94;31.93
67803;BME280;54601;51.378;-1.342;2022-12-29T04:32:33;98141.06;;;19.94;31.92
67803;BME280;54601;51.378;-1.342;2022-12-29T04:34:58;98148.44;;;19.89;31.99
67803;BME280;54601;51.378;-1.342;2022-12-29T04:37:23;98160.99;;;19.71;31.91
67803;BME280;54601;51.378;-1.342;2022-12-29T04:39:48;98167.17;;;19.70;31.96
67803;BME280;54601;51.378;-1.342;2022-12-29T04:42:13;98177.77;;;19.90;31.99
67803;BME280;54601;51.378;-1.342;2022-12-29T04:44:39;98185.21;;;19.67;31.95
67803;BME280;54601;51.378;-1.342;2022-12-29T04:47:04;98188.70;;;19.61;32.04
67803;BME280;54601;51.378;-1.342;2022-12-29T04:49:29;98209.68;;;19.66;31.98
67803;BME280;54601;51.378;-1.342;2022-12-29T04:51:54;98217.54;;;19.95;32.29
67803;BME280;54601;51.378;-1.342;2022-12-29T04:54:19;98229.64;;;19.90;32.04
67803;BME280;54601;51.378;-1.342;2022-12-29T04:56:44;98232.19;;;19.63;32.03
67803;BME280;54601;51.378;-1.342;2022-12-29T04:59:09;98237.36;;;20.16;31.98
67803;BME280;54601;51.378;-1.342;2022-12-29T05:01:34;98243.93;;;19.69;31.95
67803;BME280;54601;51.378;-1.342;2022-12-29T05:03:59;98251.41;;;19.62;31.98
67803;BME280;54601;51.378;-1.342;2022-12-29T05:06:25;98262.44;;;19.58;32.07
67803;BME280;54601;51.378;-1.342;2022-12-29T05:08:50;98270.25;;;19.61;32.02
67803;BME280;54601;51.378;-1.342;2022-12-29T05:11:15;98278.34;;;19.86;32.02
67803;BME280;54601;51.378;-1.342;2022-12-29T05:13:40;98290.08;;;19.56;32.04
67803;BME280;54601;51.378;-1.342;2022-12-29T05:16:06;98290.32;;;19.50;32.19
67803;BME280;54601;51.378;-1.342;2022-12-29T05:18:30;98296.38;;;20.06;32.03
67803;BME280;54601;51.378;-1.342;2022-12-29T05:20:55;98304.44;;;19.80;32.13
67803;BME280;54601;51.378;-1.342;2022-12-29T05:23:20;98309.05;;;19.63;31.93
67803;BME280;54601;51.378;-1.342;2022-12-29T05:25:45;98314.14;;;19.37;32.28
67803;BME280;54601;51.378;-1.342;2022-12-29T05:28:11;98321.79;;;19.47;32.21
67803;BME280;54601;51.378;-1.342;2022-12-29T05:30:36;98332.24;;;19.38;32.34
67803;BME280;54601;51.378;-1.342;2022-12-29T05:33:01;98346.60;;;19.40;32.35
67803;BME280;54601;51.378;-1.342;2022-12-29T05:35:26;98344.10;;;19.45;32.28
67803;BME280;54601;51.378;-1.342;2022-12-29T05:37:51;98348.66;;;19.81;32.29
67803;BME280;54601;51.378;-1.342;2022-12-29T05:40:16;98349.28;;;19.48;32.13
67803;BME280;54601;51.378;-1.342;2022-12-29T05:42:41;98360.70;;;19.73;32.13
67803;BME280;54601;51.378;-1.342;2022-12-29T05:45:08;98358.77;;;19.26;32.47
67803;BME280;54601;51.378;-1.342;2022-12-29T05:47:32;98365.94;;;19.34;32.31
67803;BME280;54601;51.378;-1.342;2022-12-29T05:49:57;98382.76;;;19.24;32.39
67803;BME280;54601;51.378;-1.342;2022-12-29T05:52:22;98387.42;;;19.50;32.42
67803;BME280;54601;51.378;-1.342;2022-12-29T05:54:47;98389.27;;;19.74;32.38
67803;BME280;54601;51.378;-1.342;2022-12-29T05:57:12;98404.15;;;19.42;32.49
67803;BME280;54601;51.378;-1.342;2022-12-29T05:59:37;98409.01;;;19.25;32.28
67803;BME280;54601;51.378;-1.342;2022-12-29T06:02:02;98418.47;;;19.31;32.27
67803;BME280;54601;51.378;-1.342;2022-12-29T06:04:28;98427.33;;;19.23;32.41
67803;BME280;54601;51.378;-1.342;2022-12-29T06:06:53;98431.87;;;19.62;32.23
67803;BME280;54601;51.378;-1.342;2022-12-29T06:09:18;98435.30;;;19.32;32.21
67803;BME280;54601;51.378;-1.342;2022-12-29T06:11:43;98436.26;;;19.52;32.22
67803;BME280;54601;51.378;-1.342;2022-12-29T06:14:08;98435.70;;;19.54;32.20
67803;BME280;54601;51.378;-1.342;2022-12-29T06:16:33;98443.06;;;19.51;32.21
67803;BME280;54601;51.378;-1.342;2022-12-29T06:18:58;98445.73;;;19.50;32.26
67803;BME280;54601;51.378;-1.342;2022-12-29T06:21:23;98461.45;;;19.80;32.09
67803;BME280;54601;51.378;-1.342;2022-12-29T06:23:49;98467.71;;;19.43;32.40
67803;BME280;54601;51.378;-1.342;2022-12-29T06:26:14;98471.53;;;19.26;32.27
67803;BME280;54601;51.378;-1.342;2022-12-29T06:28:39;98480.68;;;19.28;32.20
67803;BME280;54601;51.378;-1.342;2022-12-29T06:31:04;98485.72;;;19.37;31.99
67803;BME280;54601;51.378;-1.342;2022-12-29T06:33:29;98486.56;;;19.72;32.08
67803;BME280;54601;51.378;-1.342;2022-12-29T06:35:54;98495.29;;;19.14;32.23
67803;BME280;54601;51.378;-1.342;2022-12-29T06:38:19;98502.60;;;19.58;32.28
67803;BME280;54601;51.378;-1.342;2022-12-29T06:40:45;98506.93;;;19.40;32.21
67803;BME280;54601;51.378;-1.342;2022-12-29T06:43:10;98515.54;;;19.14;32.23
67803;BME280;54601;51.378;-1.342;2022-12-29T06:45:37;98514.38;;;19.62;32.18
67803;BME280;54601;51.378;-1.342;2022-12-29T06:48:00;98509.02;;;19.63;32.23
67803;BME280;54601;51.378;-1.342;2022-12-29T06:50:25;98511.02;;;19.35;32.28
67803;BME280;54601;51.378;-1.342;2022-12-29T06:52:51;98515.36;;;18.22;32.21
67803;BME280;54601;51.378;-1.342;2022-12-29T06:55:15;98515.47;;;19.54;31.77
67803;BME280;54601;51.378;-1.342;2022-12-29T06:57:40;98515.47;;;19.48;31.77
67803;BME280;54601;51.378;-1.342;2022-12-29T07:00:07;98512.89;;;19.48;31.74
67803;BME280;54601;51.378;-1.342;2022-12-29T07:02:31;98525.03;;;19.38;31.81
67803;BME280;54601;51.378;-1.342;2022-12-29T07:04:56;98527.47;;;19.36;31.80
67803;BME280;54601;51.378;-1.342;2022-12-29T07:07:21;98530.36;;;19.32;31.87
67803;BME280;54601;51.378;-1.342;2022-12-29T07:09:46;98529.61;;;19.66;31.72
67803;BME280;54601;51.378;-1.342;2022-12-29T07:12:11;98535.19;;;19.28;31.79
67803;BME280;54601;51.378;-1.342;2022-12-29T07:14:37;98536.84;;;19.25;31.82
67803;BME280;54601;51.378;-1.342;2022-12-29T07:17:02;98540.26;;;19.29;31.79
67803;BME280;54601;51.378;-1.342;2022-12-29T07:19:27;98542.29;;;19.18;31.95
67803;BME280;54601;51.378;-1.342;2022-12-29T07:21:54;98542.22;;;19.12;32.07
67803;BME280;54601;51.378;-1.342;2022-12-29T07:24:17;98555.04;;;19.05;32.12
67803;BME280;54601;51.378;-1.342;2022-12-29T07:26:42;98556.63;;;19.56;32.13
67803;BME280;54601;51.378;-1.342;2022-12-29T07:29:07;98557.54;;;19.05;32.02
67803;BME280;54601;51.378;-1.342;2022-12-29T07:31:32;98552.61;;;19.32;32.10
67803;BME280;54601;51.378;-1.342;2022-12-29T07:33:57;98560.91;;;19.23;32.14
67803;BME280;54601;51.378;-1.342;2022-12-29T07:36:23;98559.95;;;19.43;32.14
67803;BME280;54601;51.378;-1.342;2022-12-29T07:38:48;98562.16;;;19.19;32.23
67803;BME280;54601;51.378;-1.342;2022-12-29T07:41:13;98563.43;;;19.44;32.08
67803;BME280;54601;51.378;-1.342;2022-12-29T07:43:38;98563.64;;;19.30;32.00
67803;BME280;54601;51.378;-1.342;2022-12-29T07:46:03;98571.60;;;18.96;32.12
67803;BME280;54601;51.378;-1.342;2022-12-29T07:48:28;98573.65;;;19.15;32.21
67803;BME280;54601;51.378;-1.342;2022-12-29T07:50:53;98583.50;;;19.25;32.06
67803;BME280;54601;51.378;-1.342;2022-12-29T07:53:19;98579.12;;;19.04;31.99
67803;BME280;54601;51.378;-1.342;2022-12-29T07:55:44;98582.99;;;19.29;32.07
67803;BME280;54601;51.378;-1.342;2022-12-29T07:58:09;98594.25;;;19.39;32.17
67803;BME280;54601;51.378;-1.342;2022-12-29T08:00:34;98587.37;;;19.47;32.13
67803;BME280;54601;51.378;-1.342;2022-12-29T08:02:59;98592.83;;;19.29;32.02
67803;BME280;54601;51.378;-1.342;2022-12-29T08:05:24;98599.46;;;19.23;32.10
67803;BME280;54601;51.378;-1.342;2022-12-29T08:07:49;98598.17;;;19.38;31.92
67803;BME280;54601;51.378;-1.342;2022-12-29T08:10:15;98597.09;;;19.48;31.76
67803;BME280;54601;51.378;-1.342;2022-12-29T08:12:40;98608.00;;;19.45;31.79
67803;BME280;54601;51.378;-1.342;2022-12-29T08:15:07;98614.05;;;19.14;31.83
67803;BME280;54601;51.378;-1.342;2022-12-29T08:17:30;98614.32;;;19.43;31.82
67803;BME280;54601;51.378;-1.342;2022-12-29T08:19:55;98612.17;;;19.37;31.84
67803;BME280;54601;51.378;-1.342;2022-12-29T08:22:21;98614.43;;;19.32;31.65
67803;BME280;54601;51.378;-1.342;2022-12-29T08:24:46;98614.04;;;19.23;31.73
67803;BME280;54601;51.378;-1.342;2022-12-29T08:27:11;98621.64;;;19.80;31.62
67803;BME280;54601;51.378;-1.342;2022-12-29T08:29:36;98624.62;;;19.61;31.59
67803;BME280;54601;51.378;-1.342;2022-12-29T08:32:01;98625.22;;;19.50;31.70
67803;BME280;54601;51.378;-1.342;2022-12-29T08:34:26;98634.71;;;19.52;31.71
67803;BME280;54601;51.378;-1.342;2022-12-29T08:36:51;98639.30;;;19.79;31.66
67803;BME280;54601;51.378;-1.342;2022-12-29T08:39:17;98644.29;;;19.64;31.59
67803;BME280;54601;51.378;-1.342;2022-12-29T08:41:42;98656.19;;;19.59;31.64
67803;BME280;54601;51.378;-1.342;2022-12-29T08:44:07;98659.02;;;19.55;31.94
67803;BME280;54601;51.378;-1.342;2022-12-29T08:46:32;98664.26;;;19.50;31.72
67803;BME280;54601;51.378;-1.342;2022-12-29T08:48:57;98671.82;;;19.34;31.63
67803;BME280;54601;51.378;-1.342;2022-12-29T08:51:23;98670.29;;;19.77;31.71
67803;BME280;54601;51.378;-1.342;2022-12-29T08:53:47;98680.53;;;19.66;31.58
67803;BME280;54601;51.378;-1.342;2022-12-29T08:56:13;98682.38;;;19.85;31.64
67803;BME280;54601;51.378;-1.342;2022-12-29T08:58:38;98684.45;;;19.76;31.73
67803;BME280;54601;51.378;-1.342;2022-12-29T09:01:04;98691.66;;;19.36;31.64
67803;BME280;54601;51.378;-1.342;2022-12-29T09:03:28;98694.10;;;19.36;31.68
67803;BME280;54601;51.378;-1.342;2022-12-29T09:05:55;98699.50;;;19.91;31.60
67803;BME280;54601;51.378;-1.342;2022-12-29T09:08:19;98704.93;;;19.43;31.65
67803;BME280;54601;51.378;-1.342;2022-12-29T09:10:44;98711.25;;;19.43;31.63
67803;BME280;54601;51.378;-1.342;2022-12-29T09:13:08;98718.72;;;19.46;31.60
67803;BME280;54601;51.378;-1.342;2022-12-29T09:15:33;98720.85;;;20.06;31.51
67803;BME280;54601;51.378;-1.342;2022-12-29T09:17:59;98728.83;;;19.76;31.90
67803;BME280;54601;51.378;-1.342;2022-12-29T09:20:24;98731.53;;;19.69;31.71
67803;BME280;54601;51.378;-1.342;2022-12-29T09:22:49;98732.57;;;19.70;31.69
67803;BME280;54601;51.378;-1.342;2022-12-29T09:25:14;98728.76;;;19.63;31.81
67803;BME280;54601;51.378;-1.342;2022-12-29T09:27:39;98738.33;;;19.47;31.72
67803;BME280;54601;51.378;-1.342;2022-12-29T09:30:06;98751.75;;;19.72;31.79
67803;BME280;54601;51.378;-1.342;2022-12-29T09:32:29;98749.73;;;19.28;32.00
67803;BME280;54601;51.378;-1.342;2022-12-29T09:34:54;98749.98;;;19.26;32.06
67803;BME280;54601;51.378;-1.342;2022-12-29T09:37:19;98751.22;;;19.29;32.05
67803;BME280;54601;51.378;-1.342;2022-12-29T09:39:45;98753.52;;;20.03;31.79
67803;BME280;54601;51.378;-1.342;2022-12-29T09:42:14;98754.11;;;19.42;31.96
67803;BME280;54601;51.378;-1.342;2022-12-29T09:44:48;98753.39;;;19.89;31.76
67803;BME280;54601;51.378;-1.342;2022-12-29T09:47:00;98752.53;;;19.39;32.14
67803;BME280;54601;51.378;-1.342;2022-12-29T09:49:28;98757.58;;;19.39;32.12
67803;BME280;54601;51.378;-1.342;2022-12-29T09:51:53;98757.20;;;19.94;32.03
67803;BME280;54601;51.378;-1.342;2022-12-29T09:54:36;98773.76;;;19.98;32.02
67803;BME280;54601;51.378;-1.342;2022-12-29T09:56:41;98775.66;;;19.78;31.96
67803;BME280;54601;51.378;-1.342;2022-12-29T09:59:12;98782.27;;;19.78;31.91
67803;BME280;54601;51.378;-1.342;2022-12-29T10:01:34;98784.92;;;19.55;31.93
67803;BME280;54601;51.378;-1.342;2022-12-29T10:03:57;98783.16;;;20.03;31.60
67803;BME280;54601;51.378;-1.342;2022-12-29T10:06:23;98787.26;;;19.77;31.54
67803;BME280;54601;51.378;-1.342;2022-12-29T10:08:50;98793.49;;;20.35;31.50
67803;BME280;54601;51.378;-1.342;2022-12-29T10:11:21;98800.60;;;19.95;31.68
67803;BME280;54601;51.378;-1.342;2022-12-29T10:13:45;98807.66;;;20.09;31.52
67803;BME280;54601;51.378;-1.342;2022-12-29T10:16:07;98807.05;;;20.21;31.62
67803;BME280;54601;51.378;-1.342;2022-12-29T10:18:39;98811.67;;;19.71;31.62
67803;BME280;54601;51.378;-1.342;2022-12-29T10:20:55;98812.04;;;20.07;31.51
67803;BME280;54601;51.378;-1.342;2022-12-29T10:23:25;98810.26;;;19.81;31.50
67803;BME280;54601;51.378;-1.342;2022-12-29T10:25:43;98822.40;;;19.79;31.54
67803;BME280;54601;51.378;-1.342;2022-12-29T10:28:15;98823.58;;;20.35;31.41
67803;BME280;54601;51.378;-1.342;2022-12-29T10:30:33;98830.17;;;19.89;31.35
67803;BME280;54601;51.378;-1.342;2022-12-29T10:33:00;98832.97;;;19.96;31.57
67803;BME280;54601;51.378;-1.342;2022-12-29T10:35:25;98834.06;;;19.73;31.49
67803;BME280;54601;51.378;-1.342;2022-12-29T10:37:52;98843.62;;;19.94;31.20
67803;BME280;54601;51.378;-1.342;2022-12-29T10:40:18;98849.47;;;19.85;31.32
67803;BME280;54601;51.378;-1.342;2022-12-29T10:42:41;98854.03;;;20.37;31.22
67803;BME280;54601;51.378;-1.342;2022-12-29T10:45:04;98849.05;;;20.07;30.99
67803;BME280;54601;51.378;-1.342;2022-12-29T10:47:32;98851.23;;;19.86;31.37
67803;BME280;54601;51.378;-1.342;2022-12-29T10:49:54;98851.03;;;19.86;31.41
67803;BME280;54601;51.378;-1.342;2022-12-29T10:52:19;98851.03;;;20.29;31.45
67803;BME280;54601;51.378;-1.342;2022-12-29T10:54:48;98857.35;;;20.02;31.41
67803;BME280;54601;51.378;-1.342;2022-12-29T10:57:11;98854.61;;;20.01;31.41
67803;BME280;54601;51.378;-1.342;2022-12-29T10:59:36;98864.78;;;20.03;31.32
67803;BME280;54601;51.378;-1.342;2022-12-29T11:02:11;98863.08;;;19.77;31.36
67803;BME280;54601;51.378;-1.342;2022-12-29T11:04:32;98864.86;;;20.16;31.17
67803;BME280;54601;51.378;-1.342;2022-12-29T11:06:49;98862.46;;;20.07;30.95
67803;BME280;54601;51.378;-1.342;2022-12-29T11:09:19;98874.25;;;20.23;31.06
67803;BME280;54601;51.378;-1.342;2022-12-29T11:11:39;98863.97;;;20.07;30.90
67803;BME280;54601;51.378;-1.342;2022-12-29T11:14:11;98869.89;;;19.97;31.05
67803;BME280;54601;51.378;-1.342;2022-12-29T11:16:31;98877.90;;;20.02;30.96
67803;BME280;54601;51.378;-1.342;2022-12-29T11:18:54;98876.81;;;20.01;31.03
67803;BME280;54601;51.378;-1.342;2022-12-29T11:21:27;98868.19;;;20.11;30.84
67803;BME280;54601;51.378;-1.342;2022-12-29T11:23:54;98870.67;;;20.32;30.88
67803;BME280;54601;51.378;-1.342;2022-12-29T11:26:15;98874.62;;;20.03;30.93
67803;BME280;54601;51.378;-1.342;2022-12-29T11:28:35;98877.01;;;20.05;30.82
67803;BME280;54601;51.378;-1.342;2022-12-29T11:31:00;98876.87;;;20.08;30.77
67803;BME280;54601;51.378;-1.342;2022-12-29T11:33:27;98879.41;;;19.89;30.95
67803;BME280;54601;51.378;-1.342;2022-12-29T11:35:50;98884.03;;;20.12;30.63
67803;BME280;54601;51.378;-1.342;2022-12-29T11:38:20;98885.39;;;20.47;30.75
67803;BME280;54601;51.378;-1.342;2022-12-29T11:40:40;98887.14;;;20.02;30.68
67803;BME280;54601;51.378;-1.342;2022-12-29T11:43:05;98894.37;;;20.05;30.66
67803;BME280;54601;51.378;-1.342;2022-12-29T11:45:34;98890.94;;;20.00;30.69
67803;BME280;54601;51.378;-1.342;2022-12-29T11:47:58;98892.98;;;20.29;30.70
67803;BME280;54601;51.378;-1.342;2022-12-29T11:50:22;98891.49;;;20.06;30.58
67803;BME280;54601;51.378;-1.342;2022-12-29T11:52:46;98888.55;;;20.04;30.60
67803;BME280;54601;51.378;-1.342;2022-12-29T11:55:17;98895.36;;;20.24;30.32
67803;BME280;54601;51.378;-1.342;2022-12-29T11:57:35;98892.54;;;20.28;30.59
67803;BME280;54601;51.378;-1.342;2022-12-29T12:00:02;98892.95;;;20.01;30.57
67803;BME280;54601;51.378;-1.342;2022-12-29T12:02:33;98896.15;;;20.31;30.53
67803;BME280;54601;51.378;-1.342;2022-12-29T12:04:56;98884.71;;;19.89;30.68
67803;BME280;54601;51.378;-1.342;2022-12-29T12:07:19;98878.78;;;19.88;30.74
67803;BME280;54601;51.378;-1.342;2022-12-29T12:09:45;98879.79;;;20.00;30.59
67803;BME280;54601;51.378;-1.342;2022-12-29T12:12:13;98881.46;;;20.00;30.57
67803;BME280;54601;51.378;-1.342;2022-12-29T12:14:36;98879.20;;;20.07;30.42
67803;BME280;54601;51.378;-1.342;2022-12-29T12:17:02;98883.15;;;20.07;30.43
67803;BME280;54601;51.378;-1.342;2022-12-29T12:19:31;98884.87;;;20.28;30.19
67803;BME280;54601;51.378;-1.342;2022-12-29T12:21:51;98889.21;;;19.99;30.50
67803;BME280;54601;51.378;-1.342;2022-12-29T12:24:26;98902.18;;;20.16;30.22
67803;BME280;54601;51.378;-1.342;2022-12-29T12:26:42;98892.80;;;19.99;30.42
67803;BME280;54601;51.378;-1.342;2022-12-29T12:29:08;98899.04;;;20.04;30.40
67803;BME280;54601;51.378;-1.342;2022-12-29T12:31:37;98902.38;;;20.16;30.18
67803;BME280;54601;51.378;-1.342;2022-12-29T12:33:57;98902.47;;;20.06;30.32
67803;BME280;54601;51.378;-1.342;2022-12-29T12:36:29;98907.56;;;20.34;30.29
67803;BME280;54601;51.378;-1.342;2022-12-29T12:38:48;98916.84;;;20.04;30.32
67803;BME280;54601;51.378;-1.342;2022-12-29T12:41:09;98912.38;;;20.04;30.28
67803;BME280;54601;51.378;-1.342;2022-12-29T12:43:39;98908.84;;;20.03;30.26
67803;BME280;54601;51.378;-1.342;2022-12-29T12:46:08;98914.84;;;20.01;30.30